CDT,Max TemperatureF,Mean TemperatureF,Min TemperatureF,Max Dew PointF,MeanDew PointF,Min DewpointF,Max Humidity, Mean Humidity, Min Humidity, Max Sea Level PressureIn, Mean Sea Level PressureIn, Min Sea Level PressureIn, Max VisibilityMiles, Mean VisibilityMiles, Min VisibilityMiles, Max Wind SpeedMPH, Mean Wind SpeedMPH, Max Gust SpeedMPH,PrecipitationIn, CloudCover, Events, WindDirDegrees
2012-10-1,73,55,37,54,43,30,94,59,24,30.16,30.08,29.97,10,10,8,24,11,31,0.01,2,Thunderstorm,351
2012-10-2,82,56,30,37,33,28,89,51,17,30.11,29.95,29.80,10,10,10,15,7,23,0.00,0,,196
2012-10-3,94,69,43,45,37,26,77,42,10,30.15,29.78,29.62,10,10,6,36,9,47,T,0,,94
2012-10-4,57,47,36,37,29,24,67,51,29,30.38,30.29,30.15,10,10,10,24,17,33,0.00,1,Thunderstorm,355
2012-10-5,41,36,30,35,31,26,96,80,68,30.45,30.38,30.32,10,8,0,9,4,,0.12,7,Fog-Snow,39
2012-10-6,40,36,31,35,32,29,100,89,67,30.46,30.40,30.36,10,7,0,14,5,,0.19,7,Fog-Rain-Snow,133
2012-10-7,57,40,23,35,26,21,100,74,29,30.42,30.25,30.08,10,8,0,14,7,23,0.00,1,Fog,247
2012-10-8,76,53,29,32,26,20,85,49,13,30.07,29.92,29.80,10,10,10,14,8,21,0.00,0,,245
2012-10-9,59,46,33,38,32,25,76,56,28,30.24,30.02,29.79,10,10,2,28,11,32,0.00,1,,357
2012-10-10,66,46,26,36,31,26,92,60,29,30.28,30.15,29.99,10,10,10,21,8,26,0.00,0,,209
2012-10-11,63,49,35,37,33,25,86,56,35,30.32,30.09,29.94,10,10,10,21,9,29,0.00,0,,49
2012-10-12,53,41,29,43,30,24,79,66,54,30.34,30.19,29.95,10,10,9,16,7,,0.00,4,,110
2012-10-13,78,61,43,48,41,32,97,63,19,29.92,29.76,29.59,10,8,0,26,8,28,T,2,Fog-Thunderstorm,247
2012-10-14,76,60,43,39,35,33,66,41,23,30.09,30.01,29.81,10,10,10,22,15,30,0.00,0,,302
2012-10-15,84,62,39,41,36,31,83,50,15,30.05,29.90,29.72,10,10,10,13,8,18,0.00,0,,238
2012-10-16,81,63,45,40,36,34,65,40,20,29.77,29.61,29.41,10,10,10,15,9,21,0.00,1,,251
2012-10-17,69,56,43,47,26,14,64,35,17,29.87,29.69,29.45,10,10,8,34,22,46,T,2,Rain,307
2012-10-18,60,51,42,20,15,11,37,25,17,29.97,29.89,29.85,10,6,1,46,27,60,0.00,4,,308
2012-10-19,70,52,33,25,15,7,45,27,13,30.01,29.90,29.79,10,10,10,20,12,24,0.00,0,,292
2012-10-20,82,58,34,29,26,22,70,36,12,29.77,29.68,29.60,10,10,10,12,5,,0.00,0,,236
2012-10-21,79,57,35,39,34,29,70,42,20,29.81,29.69,29.59,10,10,10,21,9,,0.00,0,,30
2012-10-22,62,52,41,49,44,39,93,72,58,29.93,29.84,29.78,10,8,5,12,8,,0.00,6,,11
2012-10-23,69,57,45,50,48,45,100,85,49,29.78,29.72,29.65,10,5,0,12,6,,0.00,4,Fog,113
2012-10-24,55,45,35,47,42,32,96,79,58,29.90,29.82,29.75,10,8,4,23,13,31,0.13,7,Rain,29
2012-10-25,45,35,24,33,29,22,93,80,47,30.46,30.13,29.93,10,7,1,26,17,36,0.05,5,Snow,342
2012-10-26,37,30,23,25,23,21,93,77,61,30.63,30.51,30.37,10,10,8,8,5,,0.00,5,,291
2012-10-27,51,37,23,27,24,20,84,65,38,30.41,30.28,30.14,10,10,9,18,7,25,0.00,1,,178
2012-10-28,59,40,21,31,26,20,89,62,32,30.25,30.16,30.07,10,10,9,18,4,26,0.00,5,,148
2012-10-29,77,54,31,36,31,24,85,49,21,30.12,30.04,29.97,10,10,9,9,6,16,0.00,0,,226
2012-10-30,76,57,38,41,36,33,83,54,22,30.04,29.99,29.94,10,10,10,18,7,22,0.00,0,,310
2012-10-31,76,55,33,40,33,29,85,56,18,30.07,30.03,29.97,10,10,10,13,6,,0.00,0,,276